Aviation Digital Data Service (ADDS)

Output produced by METARs form (1317 UTC 05 July 2015)
found at http://www.aviationweather.gov/adds/metars/
 
KDEC 051133Z 0512/0612 VRB03KT 5SM BR SKC 
     FM051300 15004KT P6SM SCT025 
     FM051700 17007KT P6SM SCT030